Huvudsida
METAR-TAF:

METAR-TAF

Flygplatser :

Visby Airport

Visby, Gotland, Sverige

latitud: 57-40N, longitud: 018-21E, höjd: 51 m

Aktuellt väderrapport

Denna rapport gjordes för 20 minuter sedan, klockan 10:50 UTC
Vind 13 kt från väst
Temperatur 18°C
Fuktighet 77%
Tryck 1018 hPa
Sikt 10 km eller mer
Inga moln under 1 500 m eller inga cumulonimbus

METAR: ESSV 191050Z 26013KT CAVOK 18/14 Q1018

Tid: 13:10 (11:10 UTC)

Väderprognos

Denna rapport gjordes för 2 timmar och 40 minuter sedan, klockan 08:30 UTC
Prognos gäller från 19 kl. 09 UTC till 19 kl. 18 UTC
Vind 10 kt från väst/nordväst
Sikt 10 km eller mer
Inga moln under 1 500 m eller inga cumulonimbus

TAF: ESSV 190830Z 1909/1918 29010KT CAVOK

Aktuella väderrapporter och prognoser från 4000 flygplatser (METAR- och TAF-rapporter).

De tillgängliga stationerna syns som gula och röda prickar på kartan.

För musen över prickarna för att se namnen på stationerna.

Klicka sedan för att få väderrapporter och prognoser.

För att ändra kartan: Klicka på de gröna knapparna med ett svart kors på för att zooma in; den gröna knappen med ett streck på för att zooma ut; eller på de gröna pilarna för angränsande kartor.


METAR-TAF: